createdAt,value
2018-09-26T00:02:31.657Z,2.9
2018-09-26T00:05:31.883Z,2.9
2018-09-26T00:08:31.901Z,2.9
2018-09-26T00:11:31.602Z,2.9
2018-09-26T00:14:31.765Z,2.9
2018-09-26T00:17:31.630Z,2.9
2018-09-26T00:20:31.692Z,2.9
2018-09-26T00:23:31.909Z,2.9
2018-09-26T00:26:31.636Z,2.9
2018-09-26T00:29:31.976Z,2.9
2018-09-26T00:32:31.642Z,2.9
2018-09-26T00:35:31.838Z,2.9
2018-09-26T00:38:31.774Z,2.9
2018-09-26T00:41:31.446Z,2.9
2018-09-26T00:44:31.810Z,2.9
2018-09-26T00:47:31.834Z,2.9
2018-09-26T00:50:31.836Z,2.9
2018-09-26T00:53:31.513Z,2.9
2018-09-26T00:56:31.600Z,2.9
2018-09-26T00:59:31.466Z,2.9
2018-09-26T01:02:31.554Z,2.9
2018-09-26T01:05:31.536Z,2.9
2018-09-26T01:08:31.787Z,2.9
2018-09-26T01:11:32.024Z,2.9
2018-09-26T01:14:31.654Z,2.9
2018-09-26T01:17:31.886Z,2.9
2018-09-26T01:20:31.700Z,2.9
2018-09-26T01:23:31.939Z,2.9
2018-09-26T01:26:31.563Z,2.9
2018-09-26T01:29:31.965Z,2.9
2018-09-26T01:32:31.492Z,2.9
2018-09-26T01:35:31.631Z,2.9
2018-09-26T01:38:31.641Z,2.9
2018-09-26T01:41:33.554Z,2.9
2018-09-26T01:44:32.106Z,2.9
2018-09-26T01:47:31.516Z,2.9
2018-09-26T01:50:31.892Z,2.9
2018-09-26T01:53:31.757Z,2.9
2018-09-26T01:56:31.972Z,2.9
2018-09-26T01:59:31.502Z,2.9
2018-09-26T02:02:31.706Z,2.9
2018-09-26T02:05:31.561Z,2.9
2018-09-26T02:08:31.725Z,2.9
2018-09-26T02:11:31.504Z,2.9
2018-09-26T02:14:31.438Z,2.9
2018-09-26T02:17:31.809Z,2.9
2018-09-26T02:20:31.797Z,2.9
2018-09-26T02:23:32.246Z,2.9
2018-09-26T02:26:31.689Z,2.9
2018-09-26T02:29:31.660Z,2.9
2018-09-26T02:32:31.520Z,2.9
2018-09-26T02:35:31.548Z,2.9
2018-09-26T02:38:31.542Z,2.9
2018-09-26T02:41:32.010Z,2.9
2018-09-26T02:44:31.515Z,2.9
2018-09-26T02:47:31.546Z,2.9
2018-09-26T02:50:31.614Z,2.9
2018-09-26T02:53:31.640Z,2.9
2018-09-26T02:56:31.648Z,2.9
2018-09-26T02:59:31.530Z,2.9
2018-09-26T03:02:31.377Z,2.9
2018-09-26T03:05:31.665Z,2.9
2018-09-26T03:08:32.002Z,2.9
2018-09-26T03:11:31.850Z,2.9
2018-09-26T03:14:31.569Z,2.9
2018-09-26T03:17:33.140Z,2.9
2018-09-26T03:20:31.473Z,2.9
2018-09-26T03:23:31.568Z,2.9
2018-09-26T03:26:31.577Z,2.9
2018-09-26T03:29:31.513Z,2.9
2018-09-26T03:32:31.512Z,2.9
2018-09-26T03:35:31.580Z,2.9
2018-09-26T03:38:31.616Z,2.9
2018-09-26T03:41:31.492Z,2.9
2018-09-26T03:44:32.014Z,2.9
2018-09-26T03:47:32.003Z,2.9
2018-09-26T03:50:31.668Z,2.9
2018-09-26T03:53:31.526Z,2.9
2018-09-26T03:56:31.458Z,2.9
2018-09-26T03:59:31.972Z,2.9
2018-09-26T04:02:31.623Z,2.9
2018-09-26T04:05:31.537Z,2.9
2018-09-26T04:08:31.481Z,2.9
2018-09-26T04:11:31.752Z,2.9
2018-09-26T04:14:31.574Z,2.9
2018-09-26T04:17:31.642Z,2.9
2018-09-26T04:20:33.374Z,2.9
2018-09-26T04:23:31.634Z,2.9
2018-09-26T04:26:34.560Z,2.9
2018-09-26T04:29:32.000Z,2.9
2018-09-26T04:32:32.959Z,2.9
2018-09-26T04:35:31.668Z,2.9
2018-09-26T04:38:33.398Z,2.9
2018-09-26T04:41:31.925Z,2.9
2018-09-26T04:44:31.540Z,2.9
2018-09-26T04:47:31.468Z,2.9
2018-09-26T04:50:31.397Z,2.9
2018-09-26T04:53:31.409Z,2.9
2018-09-26T04:56:31.555Z,2.9
2018-09-26T04:59:31.409Z,2.9
2018-09-26T05:02:31.526Z,2.9
2018-09-26T05:05:31.722Z,2.9
2018-09-26T05:08:31.420Z,2.9
2018-09-26T05:11:31.669Z,2.9
2018-09-26T05:14:31.960Z,2.9
2018-09-26T05:17:31.981Z,2.9
2018-09-26T05:20:31.548Z,2.9
2018-09-26T05:23:31.475Z,2.9
2018-09-26T05:26:31.637Z,2.9
2018-09-26T05:29:31.457Z,2.9
2018-09-26T05:32:31.976Z,2.9
2018-09-26T05:35:31.799Z,2.9
2018-09-26T05:38:31.708Z,2.9
2018-09-26T05:41:32.271Z,2.9
2018-09-26T05:44:31.753Z,2.9
2018-09-26T05:47:32.015Z,2.9
2018-09-26T05:50:31.645Z,2.9
2018-09-26T05:53:33.449Z,2.9
2018-09-26T05:56:31.760Z,2.9
2018-09-26T05:59:32.272Z,2.9
2018-09-26T06:02:31.404Z,2.9
2018-09-26T06:05:33.609Z,2.9
2018-09-26T06:08:31.463Z,2.9
2018-09-26T06:11:31.607Z,2.9
2018-09-26T06:14:31.352Z,2.9
2018-09-26T06:17:31.421Z,2.9
2018-09-26T06:20:31.448Z,2.9
2018-09-26T06:23:31.315Z,2.9
2018-09-26T06:26:31.709Z,2.9
2018-09-26T06:29:31.651Z,2.9
2018-09-26T06:32:31.899Z,2.9
2018-09-26T06:35:31.532Z,2.9
2018-09-26T06:38:31.593Z,2.9
2018-09-26T06:41:31.367Z,2.9
2018-09-26T06:44:32.368Z,2.9
2018-09-26T06:47:33.042Z,2.9
2018-09-26T06:50:31.513Z,2.9
2018-09-26T06:53:31.570Z,2.9
2018-09-26T06:56:31.443Z,2.9
2018-09-26T06:59:31.329Z,2.9
2018-09-26T07:02:31.450Z,2.9
2018-09-26T07:05:31.856Z,2.9
2018-09-26T07:08:31.795Z,2.9
2018-09-26T07:11:31.660Z,2.9
2018-09-26T07:14:31.428Z,2.9
2018-09-26T07:17:31.645Z,2.9
2018-09-26T07:20:31.401Z,2.9
2018-09-26T07:23:31.561Z,2.9
2018-09-26T07:26:31.431Z,2.9
2018-09-26T07:29:31.549Z,2.9
2018-09-26T07:32:31.683Z,2.9
2018-09-26T07:35:31.471Z,2.9
2018-09-26T07:38:33.339Z,2.9
2018-09-26T07:41:31.521Z,2.9
2018-09-26T07:44:31.447Z,2.9
2018-09-26T07:47:31.349Z,2.9
2018-09-26T07:50:31.421Z,2.9
2018-09-26T07:53:31.551Z,2.9
2018-09-26T07:56:31.688Z,2.9
2018-09-26T07:59:31.713Z,2.9
2018-09-26T08:02:31.615Z,2.7
2018-09-26T08:05:31.702Z,2.7
2018-09-26T08:08:31.488Z,2.7
2018-09-26T08:11:32.214Z,2.7
2018-09-26T08:14:31.397Z,2.7
2018-09-26T08:17:31.770Z,2.7
2018-09-26T08:20:31.638Z,2.7
2018-09-26T08:23:31.591Z,2.7
2018-09-26T08:26:31.544Z,2.7
2018-09-26T08:29:31.551Z,2.7
2018-09-26T08:32:31.445Z,2.7
2018-09-26T08:35:31.567Z,2.7
2018-09-26T08:38:31.712Z,2.7
2018-09-26T08:41:31.661Z,2.7
2018-09-26T08:44:32.412Z,2.7
2018-09-26T08:47:31.341Z,2.7
2018-09-26T08:50:31.540Z,2.7
2018-09-26T08:53:31.552Z,2.7
2018-09-26T08:56:31.414Z,2.7
2018-09-26T08:59:32.232Z,2.7
2018-09-26T09:02:31.466Z,2.8
2018-09-26T09:05:31.281Z,2.8
2018-09-26T11:01:19.617Z,4.7
2018-09-26T11:04:20.707Z,4.7
2018-09-26T11:07:19.521Z,4.7
2018-09-26T11:10:20.906Z,4.7
2018-09-26T11:13:19.339Z,4.7
2018-09-26T11:16:20.579Z,4.7
2018-09-26T11:19:19.426Z,4.7
2018-09-26T11:22:21.489Z,4.7
2018-09-26T11:25:19.539Z,4.7
2018-09-26T11:28:21.303Z,4.7
2018-09-26T11:31:19.552Z,4.7
2018-09-26T11:34:20.860Z,4.7
2018-09-26T11:37:19.302Z,4.7
2018-09-26T11:40:20.923Z,4.7
2018-09-26T11:43:19.370Z,4.7
2018-09-26T11:46:21.102Z,4.7
2018-09-26T11:49:19.443Z,4.7
2018-09-26T11:52:21.272Z,4.7
2018-09-26T11:55:19.585Z,4.7
2018-09-26T11:58:20.707Z,4.7
2018-09-26T12:01:19.432Z,4.5
2018-09-26T12:04:20.976Z,4.5
2018-09-26T12:07:20.401Z,4.5
2018-09-26T12:10:21.278Z,4.5
2018-09-26T12:13:19.526Z,4.5
2018-09-26T12:16:20.890Z,4.5
2018-09-26T12:19:21.000Z,4.5
2018-09-26T12:22:22.081Z,4.5
2018-09-26T12:25:20.812Z,4.5
2018-09-26T12:28:20.905Z,4.5
2018-09-26T12:31:19.573Z,4.5
2018-09-26T12:34:20.652Z,4.5
2018-09-26T12:37:19.362Z,4.5
2018-09-26T12:40:21.256Z,4.5
2018-09-26T12:43:19.306Z,4.5
2018-09-26T12:46:21.188Z,4.5
2018-09-26T12:49:19.447Z,4.5
2018-09-26T12:52:20.923Z,4.5
2018-09-26T12:55:19.279Z,4.5
2018-09-26T12:58:21.388Z,4.5
2018-09-26T13:01:19.225Z,5
2018-09-26T13:04:20.703Z,5
2018-09-26T13:07:19.280Z,5
2018-09-26T13:10:21.206Z,5
2018-09-26T13:13:19.404Z,5
2018-09-26T13:16:21.051Z,5
2018-09-26T13:19:19.540Z,5
2018-09-26T13:22:21.440Z,5
2018-09-26T13:25:20.676Z,5
2018-09-26T13:28:21.482Z,5
2018-09-26T13:31:19.387Z,5
2018-09-26T13:34:20.893Z,5
2018-09-26T13:37:19.529Z,5
2018-09-26T13:40:20.603Z,5
2018-09-26T13:43:19.423Z,5
2018-09-26T13:46:22.610Z,5
2018-09-26T13:49:19.354Z,5
2018-09-26T13:52:21.230Z,5
2018-09-26T13:55:19.524Z,5
2018-09-26T13:58:21.527Z,5
2018-09-26T14:01:20.147Z,4.8
2018-09-26T14:04:20.795Z,4.8
2018-09-26T14:07:19.377Z,4.8
2018-09-26T14:10:19.443Z,4.8
2018-09-26T14:13:19.374Z,4.8
2018-09-26T14:16:19.263Z,4.8
2018-09-26T14:19:19.555Z,4.8
2018-09-26T14:22:20.889Z,4.8
2018-09-26T14:25:19.720Z,4.8
2018-09-26T14:28:20.830Z,4.8
2018-09-26T14:31:19.416Z,4.8
2018-09-26T14:34:19.457Z,4.8
2018-09-26T14:37:19.332Z,4.8
2018-09-26T14:40:19.476Z,4.8
2018-09-26T14:43:19.478Z,4.8
2018-09-26T14:46:19.516Z,4.8
2018-09-26T14:49:21.225Z,4.8
2018-09-26T14:52:19.601Z,4.8
2018-09-26T14:55:20.647Z,4.8
2018-09-26T14:58:20.321Z,4.8
2018-09-26T15:01:19.482Z,4.5
2018-09-26T15:04:22.429Z,4.5
2018-09-26T15:07:19.421Z,4.5
2018-09-26T15:10:21.253Z,4.5
2018-09-26T15:13:19.277Z,4.5
2018-09-26T15:16:20.533Z,4.5
2018-09-26T15:19:19.367Z,4.5
2018-09-26T15:22:20.961Z,4.5
2018-09-26T15:25:19.124Z,4.5
2018-09-26T15:28:20.354Z,4.5
2018-09-26T15:31:19.370Z,4.5
2018-09-26T15:34:20.991Z,4.5
2018-09-26T15:37:19.266Z,4.5
2018-09-26T15:40:21.081Z,4.5
2018-09-26T15:43:19.481Z,4.5
2018-09-26T15:46:20.911Z,4.5
2018-09-26T15:49:19.370Z,4.5
2018-09-26T15:52:20.852Z,4.5
2018-09-26T15:55:20.318Z,4.5
2018-09-26T15:58:21.497Z,4.5
2018-09-26T16:01:19.340Z,5.1
2018-09-26T16:04:21.228Z,5.1
2018-09-26T16:07:19.562Z,5.1
2018-09-26T16:10:21.319Z,5.1
2018-09-26T16:13:19.571Z,5.1
2018-09-26T16:16:21.207Z,5.1
2018-09-26T16:19:21.092Z,5.1
2018-09-26T16:22:20.789Z,5.1
2018-09-26T16:25:20.772Z,5.1
2018-09-26T16:28:20.687Z,5.1
2018-09-26T16:31:19.433Z,5.1
2018-09-26T16:34:21.057Z,5.1
2018-09-26T16:37:19.341Z,5.1
2018-09-26T16:40:21.029Z,5.1
2018-09-26T16:43:19.400Z,5.1
2018-09-26T16:46:21.231Z,5.1
2018-09-26T16:49:19.296Z,5.1
2018-09-26T16:52:21.094Z,5.1
2018-09-26T16:55:19.436Z,5.1
2018-09-26T16:58:21.236Z,5.1
2018-09-26T17:01:19.382Z,4.9
2018-09-26T17:04:20.900Z,4.9
2018-09-26T17:07:19.503Z,4.9
2018-09-26T17:10:20.543Z,4.9
2018-09-26T17:13:19.765Z,4.9
2018-09-26T17:16:20.861Z,4.9
2018-09-26T17:19:20.684Z,4.9
2018-09-26T17:22:21.213Z,4.9
2018-09-26T17:25:19.533Z,4.9
2018-09-26T17:28:21.372Z,4.9
2018-09-26T17:31:20.079Z,4.9
2018-09-26T17:34:21.123Z,4.9
2018-09-26T17:37:19.286Z,4.9
2018-09-26T17:40:20.841Z,4.9
2018-09-26T17:43:21.266Z,4.9
2018-09-26T17:46:21.227Z,4.9
2018-09-26T17:49:20.458Z,4.9
2018-09-26T17:52:20.849Z,4.9
2018-09-26T17:55:19.586Z,4.9
2018-09-26T17:58:20.954Z,4.9
2018-09-26T18:01:20.113Z,4.6
2018-09-26T18:04:21.170Z,4.6
2018-09-26T18:07:19.418Z,4.6
2018-09-26T18:10:19.236Z,4.6
2018-09-26T18:13:20.854Z,4.6
2018-09-26T18:16:19.317Z,4.6
2018-09-26T18:19:19.300Z,4.6
2018-09-26T18:22:19.032Z,4.6
2018-09-26T18:25:19.559Z,4.6
2018-09-26T18:28:19.228Z,4.6
2018-09-26T18:31:19.565Z,4.6
2018-09-26T18:34:19.326Z,4.6
2018-09-26T18:37:19.328Z,4.6
2018-09-26T18:40:19.415Z,4.6
2018-09-26T18:43:19.297Z,4.6
2018-09-26T18:46:19.450Z,4.6
2018-09-26T18:49:19.275Z,4.6
2018-09-26T18:52:19.398Z,4.6
2018-09-26T18:55:19.237Z,4.6
2018-09-26T18:58:19.316Z,4.6
2018-09-26T19:01:19.137Z,4.8
2018-09-26T19:04:19.352Z,4.8
2018-09-26T19:07:19.692Z,4.8
2018-09-26T19:10:19.840Z,4.8
2018-09-26T19:13:19.734Z,4.8
2018-09-26T19:16:19.231Z,4.8
2018-09-26T19:19:19.322Z,4.8
2018-09-26T19:22:19.084Z,4.8
2018-09-26T19:25:19.043Z,4.8
2018-09-26T19:28:19.105Z,4.8
2018-09-26T19:31:19.614Z,4.8
2018-09-26T19:34:19.817Z,4.8
2018-09-26T19:37:19.631Z,4.8
2018-09-26T19:40:19.259Z,4.8
2018-09-26T19:43:19.376Z,4.8
2018-09-26T19:46:19.413Z,4.8
2018-09-26T19:49:19.329Z,4.8
2018-09-26T19:52:20.080Z,4.8
2018-09-26T19:55:19.100Z,4.8
2018-09-26T19:58:20.626Z,4.8
2018-09-26T20:01:19.178Z,4.8
2018-09-26T20:04:19.293Z,4.8
2018-09-26T20:07:19.153Z,4.8
2018-09-26T20:10:21.576Z,4.8
2018-09-26T20:13:19.125Z,4.8
2018-09-26T20:16:19.511Z,4.8
2018-09-26T20:19:19.389Z,4.8
2018-09-26T20:22:19.136Z,4.8
2018-09-26T20:25:19.312Z,4.8
2018-09-26T20:28:19.225Z,4.8
2018-09-26T20:31:19.321Z,4.8
2018-09-26T20:34:19.405Z,4.8
2018-09-26T20:37:19.190Z,4.8
2018-09-26T20:40:19.424Z,4.8
2018-09-26T20:43:19.377Z,4.8
2018-09-26T20:46:19.251Z,4.8
2018-09-26T20:49:19.232Z,4.8
2018-09-26T20:52:19.440Z,4.8
2018-09-26T20:55:19.276Z,4.8
2018-09-26T20:58:20.755Z,4.8
2018-09-26T21:01:19.335Z,4.7
2018-09-26T21:04:19.278Z,4.7
2018-09-26T21:07:19.322Z,4.7
2018-09-26T21:10:19.077Z,4.7
2018-09-26T21:13:19.195Z,4.7
2018-09-26T21:16:19.583Z,4.7
2018-09-26T21:19:19.063Z,4.7
2018-09-26T21:22:19.401Z,4.7
2018-09-26T21:25:19.342Z,4.7
2018-09-26T21:28:19.343Z,4.7
2018-09-26T21:31:20.680Z,4.7
2018-09-26T21:34:19.325Z,4.7
2018-09-26T21:37:19.449Z,4.7
2018-09-26T21:40:19.624Z,4.7
2018-09-26T21:43:19.265Z,4.7
2018-09-26T21:46:19.603Z,4.7
2018-09-26T21:49:19.030Z,4.7
2018-09-26T21:52:19.167Z,4.7
2018-09-26T21:55:19.504Z,4.7
2018-09-26T21:58:19.255Z,4.7
2018-09-26T22:01:19.510Z,4.6
2018-09-26T22:04:19.251Z,4.6
2018-09-26T22:07:19.002Z,4.6
2018-09-26T22:10:19.331Z,4.6
2018-09-26T22:13:19.202Z,4.6
2018-09-26T22:16:19.170Z,4.6
2018-09-26T22:19:19.507Z,4.6
2018-09-26T22:22:19.451Z,4.6
2018-09-26T22:25:19.190Z,4.6
2018-09-26T22:28:19.301Z,4.6
2018-09-26T22:31:21.161Z,4.6
2018-09-26T22:34:19.147Z,4.6
2018-09-26T22:37:19.135Z,4.6
2018-09-26T22:40:19.330Z,4.6
2018-09-26T22:43:20.166Z,4.6
2018-09-26T22:46:19.241Z,4.6
2018-09-26T22:49:19.455Z,4.6
2018-09-26T22:52:19.145Z,4.6
2018-09-26T22:55:19.234Z,4.6
2018-09-26T22:58:19.195Z,4.6
2018-09-26T23:01:19.291Z,4.4
2018-09-26T23:04:19.233Z,4.4
2018-09-26T23:07:19.065Z,4.4
2018-09-26T23:10:19.089Z,4.4
2018-09-26T23:13:19.373Z,4.4
2018-09-26T23:16:19.046Z,4.4
2018-09-26T23:19:19.082Z,4.4
2018-09-26T23:22:19.359Z,4.4
2018-09-26T23:25:19.279Z,4.4
2018-09-26T23:28:19.239Z,4.4
2018-09-26T23:31:19.108Z,4.4
2018-09-26T23:34:19.231Z,4.4
2018-09-26T23:37:19.214Z,4.4
2018-09-26T23:40:19.316Z,4.4
2018-09-26T23:43:19.456Z,4.4
2018-09-26T23:46:19.131Z,4.4
2018-09-26T23:49:19.035Z,4.4
2018-09-26T23:52:19.169Z,4.4
2018-09-26T23:55:19.027Z,4.4
2018-09-26T23:58:19.221Z,4.4
